Beaver Island, MI (49782)

11:45 AM EST on February 24, 2017 (GMT -0500)
Lake Geneserath | | Change Station
Active Advisory: Winter Weather Advisory

Elev 603 ft 45.59 °N, 85.53 °W | Updated 18 seconds ago

Light Snow
Light Snow
28.8 °F
Feels Like 23 °F
N
5.1
Wind Variable Wind from North
Gusts 7.4 mph

Today
High -- | Low -- °F
--% Chance of Precip.
Yesterday
High -- | Low -- °F
Precip. -- in
Pressure 29.74 in
Visibility 2.5 miles
Clouds Mostly Cloudy 800 ft
Overcast 1200 ft
Windchill 23 °F
Dew Point 25 °F
Humidity 87%
Rainfall 0.00 in
Snow Depth Not available.
7:29 AM 6:22 PM
Waning Crescent, 4% visible
METAR KSJX 241637Z AUTO 04013G17KT 010V070 2 1/2SM -SN BKN008 OVC012 M02/M03 A2974 RMK AO2 T10251034
Pressure 29.74 in
Visibility 2.5 miles
Clouds Mostly Cloudy 800 ft
Overcast 1200 ft
Windchill 23 °F
Dew Point 25 °F
Humidity 87%
Rainfall 0.00 in
Snow Depth Not available.
7:29 AM 6:22 PM
Waning Crescent, 4% visible
METAR KSJX 241637Z AUTO 04013G17KT 010V070 2 1/2SM -SN BKN008 OVC012 M02/M03 A2974 RMK AO2 T10251034

Get Your Daily Forecast Email!

Thanks for signing up!

Be on the lookout for a verification email in your inbox.

You'll start receiving the daily forecast at 8 AM.

×

10-Day Weather Forecast

Almanac

Astronomy

Feb. 24, 2017 Rise Set
Actual Time
Civil Twilight
Nautical Twilight
Astronomical Twilight
Moon
Length of Visible Light
Length of Day
Tomorrow will be .
, % of the Moon is Illuminated

Today's Extremes

State Highs State Lows

Community

WunderPhotos

Upload Photos

1,962,540 photos uploaded!

WunderBlog® & News

Nearby

Air Quality

  Air Quality AQ Index Pollutant
Not available.

Snow Depth

Station Depth Elevation

Earthquake Activity

City Distance Mag. Time & Date
Minimum magnitude displayed is 2.5.

Coastal Water Temperatures

Place Temperature

Stations

Nearby Weather Stations

Station Location Temp. Windchill Dew Point Humidity Wind Precip. Elev Updated Type
                   

Watches & Warnings

Winter Weather Advisory
Issued: 3:22 AM EST Feb. 24, 2017 – National Weather Service

... Winter Weather Advisory remains in effect until 1 am EST
Saturday...

* snow will transition to a wintry mix of snow... sleet and
freezing rain later this morning.

* The heaviest snowfall rates will occur through noon today... and
the greatest amount of ice accumulation will occur between 7 PM
Friday and 1 am Saturday.

* Snow accumulations of 2 to 5 inches and ice accumulations of
one to two tenths of an inch are expected.

* Look for reduced visibilities at times.

* Power outages and tree damage are likely due to the ice.
Travel will be dangerous.

Precautionary/preparedness actions...

A Winter Weather Advisory means that periods of snow... sleet or
freezing rain will cause travel difficulties. Be prepared for
slippery roads and limited visibilities... and use caution while
driving. For the latest Road conditions... go to the mdot website
at Michigan.Gov.